Time;durP1;ratioP1;P1;durP2;ratioP2;P2;SDS_P1;SDS_P2;PMS_P1;PMS_P2;Temp;Humidity;BMP_temperature;BMP_pressure;BME280_temperature;BME280_humidity;BME280_pressure;Samples;Min_cycle;Max_cycle;Signal;HPM_P1;HPM_P2
2022/12/16 00:00:13;;;;;;;;;;;0.00;99.90;;;;;;6246516;23;19911;-66
2022/12/16 00:02:39;;;;;;;;;;;-0.10;99.90;;;;;;6246592;23;19900;-66
2022/12/16 00:05:04;;;;;;;;;;;-0.10;99.90;;;;;;6246592;23;19910;-66
2022/12/16 00:07:30;;;;;;;;;;;-0.10;99.90;;;;;;6246540;23;20283;-66
2022/12/16 00:09:56;;;;;;;;;;;-0.20;99.90;;;;;;6246535;23;20234;-66
2022/12/16 00:12:21;;;;;;;;;;;-0.20;99.90;;;;;;6246486;23;19938;-66
2022/12/16 00:14:47;;;;;;;;;;;-0.40;99.90;;;;;;6247018;23;19982;-67
2022/12/16 00:17:12;;;;;;;;;;;-0.30;99.90;;;;;;6246870;23;19927;-67
2022/12/16 00:19:38;;;;;;;;;;;-0.30;99.90;;;;;;6246522;23;20284;-66
2022/12/16 00:22:03;;;;;;;;;;;-0.30;99.90;;;;;;6246470;23;20313;-66
2022/12/16 00:24:30;;;;;;;;;;;-0.40;99.90;;;;;;6247110;22;19934;-67
2022/12/16 00:26:55;;;;;;;;;;;-0.40;99.90;;;;;;6246484;23;19903;-66
2022/12/16 00:29:21;;;;;;;;;;;-0.50;99.90;;;;;;6246203;23;19985;-66
2022/12/16 00:31:47;;;;;;;;;;;-0.70;99.90;;;;;;6246470;23;19911;-65
2022/12/16 00:34:16;;;;;;;;;;;-0.80;99.90;;;;;;6219544;23;19906;-66
2022/12/16 00:36:42;;;;;;;;;;;-0.80;99.90;;;;;;6246431;23;19900;-67
2022/12/16 00:39:08;;;;;;;;;;;-0.90;99.90;;;;;;6246389;23;19952;-66
2022/12/16 00:41:33;;;;;;;;;;;-1.00;99.90;;;;;;6246665;23;19913;-66
2022/12/16 00:43:59;;;;;;;;;;;-1.00;99.90;;;;;;6246387;23;19900;-67
2022/12/16 00:46:24;;;;;;;;;;;-1.00;99.90;;;;;;6246385;23;19910;-66
2022/12/16 00:48:50;;;;;;;;;;;-1.00;99.90;;;;;;6247060;23;20302;-66
2022/12/16 00:51:15;;;;;;;;;;;-1.10;99.90;;;;;;6246332;23;20234;-66
2022/12/16 00:53:41;;;;;;;;;;;-1.10;99.90;;;;;;6246689;23;19906;-67
2022/12/16 00:56:08;;;;;;;;;;;-1.10;99.90;;;;;;6219445;23;19899;-66
2022/12/16 00:58:33;;;;;;;;;;;-1.00;99.90;;;;;;6246295;23;19907;-66
2022/12/16 01:00:59;;;;;;;;;;;-1.10;99.90;;;;;;6246515;23;19903;-67
2022/12/16 01:03:25;;;;;;;;;;;-1.10;99.90;;;;;;6246254;23;19903;-67
2022/12/16 01:05:50;;;;;;;;;;;-1.10;99.90;;;;;;6246282;23;19900;-67
2022/12/16 01:08:16;;;;;;;;;;;-1.10;99.90;;;;;;6219355;23;19900;-66
2022/12/16 01:10:41;;;;;;;;;;;-1.20;99.90;;;;;;6246968;23;19900;-66
2022/12/16 01:13:07;;;;;;;;;;;-1.40;99.90;;;;;;6246189;23;20219;-66
2022/12/16 01:15:32;;;;;;;;;;;-1.40;99.90;;;;;;6246937;23;19903;-66
2022/12/16 01:17:58;;;;;;;;;;;-1.40;99.90;;;;;;6246188;23;20233;-66
2022/12/16 01:20:23;;;;;;;;;;;-1.40;99.90;;;;;;6246483;23;19910;-66
2022/12/16 01:22:49;;;;;;;;;;;-1.20;99.90;;;;;;6246165;23;19906;-66
2022/12/16 01:25:14;;;;;;;;;;;-1.30;99.90;;;;;;6246482;22;19904;-67
2022/12/16 01:27:40;;;;;;;;;;;-1.30;99.90;;;;;;6247431;23;19927;-66
2022/12/16 01:30:07;;;;;;;;;;;-1.30;99.90;;;;;;6247804;23;19912;-66
2022/12/16 01:32:33;;;;;;;;;;;-1.40;99.90;;;;;;6248311;23;20328;-66
2022/12/16 01:34:59;;;;;;;;;;;-1.40;99.90;;;;;;6247904;23;19931;-66
2022/12/16 01:37:24;;;;;;;;;;;-1.50;99.90;;;;;;6247820;23;19904;-66
2022/12/16 01:39:50;;;;;;;;;;;-1.60;99.90;;;;;;6247784;23;19899;-66
2022/12/16 01:42:17;;;;;;;;;;;-1.50;99.90;;;;;;6247854;23;19906;-66
2022/12/16 01:44:44;;;;;;;;;;;-1.60;99.90;;;;;;6248181;23;19954;-66
2022/12/16 01:47:13;;;;;;;;;;;-1.60;99.90;;;;;;6247836;23;19900;-66
2022/12/16 01:49:59;;;;;;;;;;;-1.60;99.90;;;;;;6248141;23;20365;-66
2022/12/16 01:52:30;;;;;;;;;;;-1.70;99.90;;;;;;6246778;23;19986;-67
2022/12/16 01:55:01;;;;;;;;;;;-1.60;99.90;;;;;;6248162;23;19903;-66
2022/12/16 01:57:32;;;;;;;;;;;-1.70;99.90;;;;;;6247706;23;20326;-66
2022/12/16 01:59:58;;;;;;;;;;;-1.70;99.90;;;;;;6248374;23;19906;-67
2022/12/16 02:02:23;;;;;;;;;;;-1.70;99.90;;;;;;6248014;23;19900;-66
2022/12/16 02:07:33;;;;;;;;;;;-1.70;99.90;;;;;;6247691;23;19949;-67
2022/12/16 02:09:59;;;;;;;;;;;-1.80;99.90;;;;;;6247552;23;20281;-66
2022/12/16 02:12:28;;;;;;;;;;;-1.80;99.90;;;;;;6247625;23;19953;-67
2022/12/16 02:15:08;;;;;;;;;;;-1.90;99.90;;;;;;6247592;23;19900;-66
2022/12/16 02:17:40;;;;;;;;;;;-1.90;99.90;;;;;;6247903;23;19907;-66
2022/12/16 02:20:17;;;;;;;;;;;-2.00;99.90;;;;;;6247447;23;19911;-66
2022/12/16 02:22:55;;;;;;;;;;;-2.00;99.90;;;;;;6248229;23;19899;-66
2022/12/16 02:25:33;;;;;;;;;;;-2.10;99.90;;;;;;6247725;22;19900;-66
2022/12/16 02:28:03;;;;;;;;;;;-2.10;99.90;;;;;;6247407;23;19906;-65
2022/12/16 02:30:29;;;;;;;;;;;-2.00;99.90;;;;;;6246852;23;19966;-66
2022/12/16 02:32:54;;;;;;;;;;;-2.00;99.90;;;;;;6247680;23;19904;-66
2022/12/16 02:35:29;;;;;;;;;;;-2.00;99.90;;;;;;6247323;23;20318;-66
2022/12/16 02:38:20;;;;;;;;;;;-2.00;99.90;;;;;;6247133;23;19900;-65
2022/12/16 02:41:10;;;;;;;;;;;-2.00;99.90;;;;;;6247567;23;20276;-66
2022/12/16 02:43:48;;;;;;;;;;;-2.00;99.90;;;;;;6247273;23;19935;-66
2022/12/16 02:46:14;;;;;;;;;;;-2.10;99.90;;;;;;6220342;23;19903;-66
2022/12/16 02:48:39;;;;;;;;;;;-2.20;99.90;;;;;;6247491;23;20375;-66
2022/12/16 02:51:05;;;;;;;;;;;-2.20;99.90;;;;;;6247218;23;19935;-66
2022/12/16 02:53:33;;;;;;;;;;;-2.20;99.90;;;;;;6247218;23;19907;-66
2022/12/16 02:56:05;;;;;;;;;;;-2.20;99.90;;;;;;6247477;23;19899;-67
2022/12/16 02:58:42;;;;;;;;;;;-2.20;99.90;;;;;;6247132;23;19957;-67
2022/12/16 03:01:28;;;;;;;;;;;-2.20;99.90;;;;;;6247690;23;19903;-67
2022/12/16 03:04:01;;;;;;;;;;;-2.30;99.90;;;;;;6247151;23;19982;-65
2022/12/16 03:06:29;;;;;;;;;;;-2.30;99.90;;;;;;6247670;23;19899;-67
2022/12/16 03:08:57;;;;;;;;;;;-2.20;99.90;;;;;;6247292;23;19982;-68
2022/12/16 03:11:24;;;;;;;;;;;-2.10;99.90;;;;;;6247616;23;19946;-66
2022/12/16 03:13:51;;;;;;;;;;;-2.20;99.90;;;;;;6246985;23;19899;-67
2022/12/16 03:16:19;;;;;;;;;;;-2.20;99.90;;;;;;6220034;23;20242;-67
2022/12/16 03:18:47;;;;;;;;;;;-2.20;99.90;;;;;;6246898;23;20380;-67
2022/12/16 03:21:13;;;;;;;;;;;-2.20;99.90;;;;;;6246810;23;19986;-67
2022/12/16 03:23:43;;;;;;;;;;;-2.10;99.90;;;;;;6219914;22;19906;-68
2022/12/16 03:26:11;;;;;;;;;;;-2.00;99.90;;;;;;6247232;23;19927;-67
2022/12/16 03:28:48;;;;;;;;;;;-1.90;99.90;;;;;;6246596;23;19899;-67
2022/12/16 03:31:20;;;;;;;;;;;-2.00;99.90;;;;;;6220942;23;19903;-67
2022/12/16 03:33:48;;;;;;;;;;;-2.10;99.90;;;;;;6246755;23;19903;-65
2022/12/16 03:36:20;;;;;;;;;;;-2.20;99.90;;;;;;6246749;23;19922;-68
2022/12/16 03:38:47;;;;;;;;;;;-2.30;99.90;;;;;;6247551;23;20329;-68
2022/12/16 03:41:13;;;;;;;;;;;-2.40;99.90;;;;;;6246699;23;19911;-67
2022/12/16 03:43:39;;;;;;;;;;;-2.30;99.90;;;;;;6246742;23;19900;-67
2022/12/16 03:46:06;;;;;;;;;;;-2.40;99.90;;;;;;6247071;23;20226;-67
2022/12/16 03:48:32;;;;;;;;;;;-2.30;99.90;;;;;;6246651;23;19901;-68
2022/12/16 03:50:58;;;;;;;;;;;-2.40;99.90;;;;;;6246762;23;19899;-67
2022/12/16 03:53:25;;;;;;;;;;;-2.40;99.90;;;;;;6246638;23;19900;-67
2022/12/16 03:55:54;;;;;;;;;;;-2.40;99.90;;;;;;6246636;23;19900;-68
2022/12/16 03:58:20;;;;;;;;;;;-2.40;99.90;;;;;;6246946;23;19906;-67
2022/12/16 04:00:45;;;;;;;;;;;-2.40;99.90;;;;;;6246511;23;19946;-67
2022/12/16 04:03:11;;;;;;;;;;;-2.40;99.90;;;;;;6246590;23;19899;-67
2022/12/16 04:05:36;;;;;;;;;;;-2.40;99.90;;;;;;6246904;23;19935;-67
2022/12/16 04:08:02;;;;;;;;;;;-2.50;99.90;;;;;;6246554;23;19977;-67
2022/12/16 04:24:18;;;;;;;;;;;-2.50;99.90;;;;;;6246421;22;20043;-67
2022/12/16 04:29:27;;;;;;;;;;;-2.20;99.90;;;;;;6246471;23;20029;-67
2022/12/16 04:31:53;;;;;;;;;;;-2.20;99.90;;;;;;6246453;23;19907;-67
2022/12/16 04:34:25;;;;;;;;;;;-2.10;99.90;;;;;;6246751;23;19906;-67
